sensor_id;sensor_type;location;lat;lon;timestamp;pressure;altitude;pressure_sealevel;temperature;humidity
57248;BME280;55809;46.618;10.764;2023-12-07T00:02:05;92883.78;;;1.82;100.00
57248;BME280;55809;46.618;10.764;2023-12-07T00:04:32;92841.22;;;1.51;100.00
57248;BME280;55809;46.618;10.764;2023-12-07T00:06:59;92888.75;;;1.84;100.00
57248;BME280;55809;46.618;10.764;2023-12-07T00:09:27;92866.53;;;1.60;100.00
57248;BME280;55809;46.618;10.764;2023-12-07T00:11:54;92896.56;;;1.77;100.00
57248;BME280;55809;46.618;10.764;2023-12-07T00:14:23;92895.34;;;1.74;100.00
57248;BME280;55809;46.618;10.764;2023-12-07T00:16:50;92912.28;;;1.66;100.00
57248;BME280;55809;46.618;10.764;2023-12-07T00:19:17;92904.63;;;1.64;100.00
57248;BME280;55809;46.618;10.764;2023-12-07T00:21:44;92899.75;;;1.67;100.00
57248;BME280;55809;46.618;10.764;2023-12-07T00:24:11;92898.22;;;1.66;100.00
57248;BME280;55809;46.618;10.764;2023-12-07T00:26:39;92907.41;;;1.68;100.00
57248;BME280;55809;46.618;10.764;2023-12-07T00:29:06;92904.06;;;1.71;100.00
57248;BME280;55809;46.618;10.764;2023-12-07T00:31:33;92912.03;;;1.71;100.00
57248;BME280;55809;46.618;10.764;2023-12-07T00:34:00;92912.19;;;1.62;100.00
57248;BME280;55809;46.618;10.764;2023-12-07T00:36:27;92915.69;;;1.51;100.00
57248;BME280;55809;46.618;10.764;2023-12-07T00:38:54;92912.44;;;1.57;100.00
57248;BME280;55809;46.618;10.764;2023-12-07T00:41:21;92909.19;;;1.64;100.00
57248;BME280;55809;46.618;10.764;2023-12-07T00:43:49;92906.75;;;1.43;100.00
57248;BME280;55809;46.618;10.764;2023-12-07T00:46:17;92922.22;;;1.53;100.00
57248;BME280;55809;46.618;10.764;2023-12-07T00:48:44;92920.41;;;1.42;100.00
57248;BME280;55809;46.618;10.764;2023-12-07T00:51:11;92916.00;;;1.33;100.00
57248;BME280;55809;46.618;10.764;2023-12-07T00:53:38;92899.88;;;1.26;100.00
57248;BME280;55809;46.618;10.764;2023-12-07T00:56:06;92917.50;;;1.47;100.00
57248;BME280;55809;46.618;10.764;2023-12-07T00:58:33;92922.56;;;1.52;100.00
57248;BME280;55809;46.618;10.764;2023-12-07T01:01:02;92926.34;;;1.67;100.00
57248;BME280;55809;46.618;10.764;2023-12-07T01:03:29;92931.06;;;1.57;100.00
57248;BME280;55809;46.618;10.764;2023-12-07T01:05:56;92910.28;;;1.47;100.00
57248;BME280;55809;46.618;10.764;2023-12-07T01:08:23;92935.59;;;1.57;100.00
57248;BME280;55809;46.618;10.764;2023-12-07T01:10:50;92934.59;;;1.61;100.00
57248;BME280;55809;46.618;10.764;2023-12-07T01:13:17;92935.50;;;1.53;100.00
57248;BME280;55809;46.618;10.764;2023-12-07T01:15:44;92939.13;;;1.45;100.00
57248;BME280;55809;46.618;10.764;2023-12-07T01:18:13;92938.59;;;1.39;100.00
57248;BME280;55809;46.618;10.764;2023-12-07T01:20:40;92949.53;;;1.38;100.00
57248;BME280;55809;46.618;10.764;2023-12-07T01:23:07;92942.03;;;1.56;100.00
57248;BME280;55809;46.618;10.764;2023-12-07T01:25:35;92908.25;;;1.12;100.00
57248;BME280;55809;46.618;10.764;2023-12-07T01:28:02;92946.59;;;1.55;100.00
57248;BME280;55809;46.618;10.764;2023-12-07T01:30:29;92910.66;;;1.17;100.00
57248;BME280;55809;46.618;10.764;2023-12-07T01:32:57;92957.38;;;1.47;100.00
57248;BME280;55809;46.618;10.764;2023-12-07T01:35:25;92958.50;;;1.46;100.00
57248;BME280;55809;46.618;10.764;2023-12-07T01:37:54;92965.34;;;1.47;100.00
57248;BME280;55809;46.618;10.764;2023-12-07T01:40:21;92947.81;;;1.30;100.00
57248;BME280;55809;46.618;10.764;2023-12-07T01:42:51;92977.03;;;1.42;100.00
57248;BME280;55809;46.618;10.764;2023-12-07T01:45:19;92967.88;;;1.55;100.00
57248;BME280;55809;46.618;10.764;2023-12-07T01:47:46;92893.31;;;1.08;100.00
57248;BME280;55809;46.618;10.764;2023-12-07T01:50:14;92972.44;;;1.55;100.00
57248;BME280;55809;46.618;10.764;2023-12-07T01:52:46;92966.31;;;1.54;100.00
57248;BME280;55809;46.618;10.764;2023-12-07T01:55:14;92971.63;;;1.54;100.00
57248;BME280;55809;46.618;10.764;2023-12-07T01:57:43;92976.03;;;1.62;100.00
57248;BME280;55809;46.618;10.764;2023-12-07T02:00:11;92974.38;;;1.58;100.00
57248;BME280;55809;46.618;10.764;2023-12-07T02:02:39;92972.66;;;1.50;100.00
57248;BME280;55809;46.618;10.764;2023-12-07T02:05:08;92975.69;;;1.48;100.00
57248;BME280;55809;46.618;10.764;2023-12-07T02:07:35;92956.34;;;1.35;100.00
57248;BME280;55809;46.618;10.764;2023-12-07T02:10:04;92968.88;;;1.51;100.00
57248;BME280;55809;46.618;10.764;2023-12-07T02:12:31;92975.56;;;1.45;100.00
57248;BME280;55809;46.618;10.764;2023-12-07T02:15:00;92972.56;;;1.46;100.00
57248;BME280;55809;46.618;10.764;2023-12-07T02:17:33;92981.31;;;1.47;100.00
57248;BME280;55809;46.618;10.764;2023-12-07T02:20:07;92971.34;;;1.44;100.00
57248;BME280;55809;46.618;10.764;2023-12-07T02:22:41;92971.13;;;1.49;100.00
57248;BME280;55809;46.618;10.764;2023-12-07T02:25:18;92972.47;;;1.43;100.00
57248;BME280;55809;46.618;10.764;2023-12-07T02:27:47;92980.00;;;1.40;100.00
57248;BME280;55809;46.618;10.764;2023-12-07T02:30:14;92980.47;;;1.43;100.00
57248;BME280;55809;46.618;10.764;2023-12-07T02:32:43;92980.47;;;1.43;100.00
57248;BME280;55809;46.618;10.764;2023-12-07T02:35:12;92987.22;;;1.40;100.00
57248;BME280;55809;46.618;10.764;2023-12-07T02:37:42;92975.03;;;1.39;100.00
57248;BME280;55809;46.618;10.764;2023-12-07T02:40:11;92962.25;;;1.29;100.00
57248;BME280;55809;46.618;10.764;2023-12-07T02:42:40;92969.31;;;1.25;100.00
57248;BME280;55809;46.618;10.764;2023-12-07T02:45:11;92989.69;;;1.33;100.00
57248;BME280;55809;46.618;10.764;2023-12-07T02:47:38;92996.91;;;1.32;100.00
57248;BME280;55809;46.618;10.764;2023-12-07T02:50:07;92991.31;;;1.37;100.00
57248;BME280;55809;46.618;10.764;2023-12-07T02:52:34;92993.47;;;1.32;100.00
57248;BME280;55809;46.618;10.764;2023-12-07T02:55:04;92993.31;;;1.40;100.00
57248;BME280;55809;46.618;10.764;2023-12-07T02:57:31;92992.88;;;1.38;100.00
57248;BME280;55809;46.618;10.764;2023-12-07T02:59:59;92993.78;;;1.30;100.00
57248;BME280;55809;46.618;10.764;2023-12-07T03:02:28;92990.00;;;1.31;100.00
57248;BME280;55809;46.618;10.764;2023-12-07T03:04:55;92984.41;;;1.21;100.00
57248;BME280;55809;46.618;10.764;2023-12-07T03:07:22;92996.94;;;1.20;100.00
57248;BME280;55809;46.618;10.764;2023-12-07T03:09:48;92981.44;;;1.22;100.00
57248;BME280;55809;46.618;10.764;2023-12-07T03:12:16;92995.00;;;1.33;100.00
57248;BME280;55809;46.618;10.764;2023-12-07T03:14:43;92995.91;;;1.25;100.00
57248;BME280;55809;46.618;10.764;2023-12-07T03:17:09;92990.47;;;1.33;100.00
57248;BME280;55809;46.618;10.764;2023-12-07T03:19:39;92999.66;;;1.36;100.00
57248;BME280;55809;46.618;10.764;2023-12-07T03:22:07;92954.25;;;1.01;100.00
57248;BME280;55809;46.618;10.764;2023-12-07T03:24:34;92991.53;;;1.16;100.00
57248;BME280;55809;46.618;10.764;2023-12-07T03:27:00;93009.88;;;1.22;100.00
57248;BME280;55809;46.618;10.764;2023-12-07T03:29:28;93020.63;;;1.25;100.00
57248;BME280;55809;46.618;10.764;2023-12-07T03:31:55;93010.66;;;1.22;100.00
57248;BME280;55809;46.618;10.764;2023-12-07T03:34:21;93018.28;;;1.24;100.00
57248;BME280;55809;46.618;10.764;2023-12-07T03:36:50;93013.56;;;1.17;100.00
57248;BME280;55809;46.618;10.764;2023-12-07T03:39:17;92984.16;;;0.98;100.00
57248;BME280;55809;46.618;10.764;2023-12-07T03:41:47;93008.44;;;1.24;100.00
57248;BME280;55809;46.618;10.764;2023-12-07T03:44:14;93011.47;;;1.10;100.00
57248;BME280;55809;46.618;10.764;2023-12-07T03:46:41;93013.47;;;1.13;100.00
57248;BME280;55809;46.618;10.764;2023-12-07T03:49:08;93017.44;;;1.20;100.00
57248;BME280;55809;46.618;10.764;2023-12-07T03:51:35;93015.53;;;1.20;100.00
57248;BME280;55809;46.618;10.764;2023-12-07T03:54:04;93014.88;;;1.23;100.00
57248;BME280;55809;46.618;10.764;2023-12-07T03:56:32;93020.09;;;1.20;100.00
57248;BME280;55809;46.618;10.764;2023-12-07T03:59:00;93024.09;;;1.13;100.00
57248;BME280;55809;46.618;10.764;2023-12-07T04:01:28;93023.13;;;1.06;100.00
57248;BME280;55809;46.618;10.764;2023-12-07T04:03:56;93026.78;;;1.01;100.00
57248;BME280;55809;46.618;10.764;2023-12-07T04:06:24;93002.66;;;0.82;100.00
57248;BME280;55809;46.618;10.764;2023-12-07T04:08:53;93027.78;;;1.09;100.00
57248;BME280;55809;46.618;10.764;2023-12-07T04:11:22;93023.25;;;0.97;100.00
57248;BME280;55809;46.618;10.764;2023-12-07T04:13:49;93022.13;;;0.98;100.00
57248;BME280;55809;46.618;10.764;2023-12-07T04:16:16;93023.25;;;0.97;100.00
57248;BME280;55809;46.618;10.764;2023-12-07T04:18:44;93004.22;;;0.83;100.00
57248;BME280;55809;46.618;10.764;2023-12-07T04:21:10;93020.69;;;0.88;100.00
57248;BME280;55809;46.618;10.764;2023-12-07T04:23:38;93025.13;;;0.97;100.00
57248;BME280;55809;46.618;10.764;2023-12-07T04:26:05;93024.69;;;0.94;100.00
57248;BME280;55809;46.618;10.764;2023-12-07T04:28:36;93021.81;;;1.00;100.00
57248;BME280;55809;46.618;10.764;2023-12-07T04:31:04;93034.31;;;0.99;100.00
57248;BME280;55809;46.618;10.764;2023-12-07T04:33:31;92994.16;;;0.76;100.00
57248;BME280;55809;46.618;10.764;2023-12-07T04:35:59;93030.19;;;1.02;100.00
57248;BME280;55809;46.618;10.764;2023-12-07T04:38:25;93034.41;;;1.03;100.00
57248;BME280;55809;46.618;10.764;2023-12-07T04:40:52;93022.03;;;0.94;100.00
57248;BME280;55809;46.618;10.764;2023-12-07T04:43:19;93035.50;;;1.02;100.00
57248;BME280;55809;46.618;10.764;2023-12-07T04:45:48;93028.56;;;0.97;100.00
57248;BME280;55809;46.618;10.764;2023-12-07T04:48:16;93035.31;;;0.94;100.00
57248;BME280;55809;46.618;10.764;2023-12-07T04:50:42;93031.78;;;0.90;100.00
57248;BME280;55809;46.618;10.764;2023-12-07T04:53:09;93033.66;;;0.90;100.00
57248;BME280;55809;46.618;10.764;2023-12-07T04:55:37;93040.75;;;0.86;100.00
57248;BME280;55809;46.618;10.764;2023-12-07T04:58:06;92965.88;;;0.43;100.00
57248;BME280;55809;46.618;10.764;2023-12-07T05:00:32;93041.75;;;0.93;100.00
57248;BME280;55809;46.618;10.764;2023-12-07T05:03:01;93037.19;;;0.82;100.00
57248;BME280;55809;46.618;10.764;2023-12-07T05:05:28;93039.19;;;0.85;100.00
57248;BME280;55809;46.618;10.764;2023-12-07T05:07:54;92972.72;;;0.32;100.00
57248;BME280;55809;46.618;10.764;2023-12-07T05:10:22;93041.31;;;0.79;100.00
57248;BME280;55809;46.618;10.764;2023-12-07T05:12:48;93039.09;;;0.81;100.00
57248;BME280;55809;46.618;10.764;2023-12-07T05:15:15;93051.03;;;0.87;100.00
57248;BME280;55809;46.618;10.764;2023-12-07T05:17:43;93049.72;;;0.93;100.00
57248;BME280;55809;46.618;10.764;2023-12-07T05:20:11;93053.91;;;0.82;100.00
57248;BME280;55809;46.618;10.764;2023-12-07T05:22:38;93051.41;;;0.74;100.00
57248;BME280;55809;46.618;10.764;2023-12-07T05:25:06;93051.03;;;0.87;100.00
57248;BME280;55809;46.618;10.764;2023-12-07T05:27:34;93059.34;;;0.86;100.00
57248;BME280;55809;46.618;10.764;2023-12-07T05:30:03;93060.56;;;0.88;100.00
57248;BME280;55809;46.618;10.764;2023-12-07T05:32:29;93059.34;;;0.86;100.00
57248;BME280;55809;46.618;10.764;2023-12-07T05:34:56;93068.31;;;0.93;100.00
57248;BME280;55809;46.618;10.764;2023-12-07T05:37:25;93074.41;;;0.94;100.00
57248;BME280;55809;46.618;10.764;2023-12-07T05:39:52;93055.13;;;0.85;100.00
57248;BME280;55809;46.618;10.764;2023-12-07T05:42:19;93071.97;;;0.77;100.00
57248;BME280;55809;46.618;10.764;2023-12-07T05:44:46;93074.28;;;0.78;100.00
57248;BME280;55809;46.618;10.764;2023-12-07T05:47:13;93070.75;;;0.74;100.00
57248;BME280;55809;46.618;10.764;2023-12-07T05:49:40;93069.22;;;0.73;100.00
57248;BME280;55809;46.618;10.764;2023-12-07T05:52:07;93085.69;;;0.79;100.00
57248;BME280;55809;46.618;10.764;2023-12-07T05:54:36;93085.69;;;0.79;100.00
57248;BME280;55809;46.618;10.764;2023-12-07T05:57:04;93087.47;;;0.87;100.00
57248;BME280;55809;46.618;10.764;2023-12-07T05:59:31;93089.34;;;0.86;100.00
57248;BME280;55809;46.618;10.764;2023-12-07T06:01:58;93085.47;;;0.84;100.00
57248;BME280;55809;46.618;10.764;2023-12-07T06:04:26;93100.31;;;0.97;100.00
57248;BME280;55809;46.618;10.764;2023-12-07T06:06:53;93088.03;;;0.80;100.00
57248;BME280;55809;46.618;10.764;2023-12-07T06:09:22;93093.09;;;0.85;100.00
57248;BME280;55809;46.618;10.764;2023-12-07T06:11:50;93097.66;;;0.85;100.00
57248;BME280;55809;46.618;10.764;2023-12-07T06:14:18;93071.53;;;0.62;100.00
57248;BME280;55809;46.618;10.764;2023-12-07T06:16:46;93041.09;;;0.47;100.00
57248;BME280;55809;46.618;10.764;2023-12-07T06:19:13;93107.63;;;0.88;100.00
57248;BME280;55809;46.618;10.764;2023-12-07T06:21:40;93114.72;;;0.96;100.00
57248;BME280;55809;46.618;10.764;2023-12-07T06:24:07;93119.81;;;0.89;100.00
57248;BME280;55809;46.618;10.764;2023-12-07T06:26:34;93122.22;;;0.94;100.00
57248;BME280;55809;46.618;10.764;2023-12-07T06:29:03;93101.97;;;0.77;100.00
57248;BME280;55809;46.618;10.764;2023-12-07T06:31:30;93119.00;;;0.88;100.00
57248;BME280;55809;46.618;10.764;2023-12-07T06:33:57;93131.63;;;0.91;100.00
57248;BME280;55809;46.618;10.764;2023-12-07T06:36:26;93132.31;;;1.01;100.00
57248;BME280;55809;46.618;10.764;2023-12-07T06:38:53;93135.50;;;0.94;100.00
57248;BME280;55809;46.618;10.764;2023-12-07T06:41:22;93097.31;;;0.62;100.00
57248;BME280;55809;46.618;10.764;2023-12-07T06:43:49;93132.75;;;0.90;100.00
57248;BME280;55809;46.618;10.764;2023-12-07T06:46:20;93140.38;;;0.92;100.00
57248;BME280;55809;46.618;10.764;2023-12-07T06:48:47;93145.38;;;0.93;100.00
57248;BME280;55809;46.618;10.764;2023-12-07T06:51:15;93140.28;;;0.76;100.00
57248;BME280;55809;46.618;10.764;2023-12-07T06:53:42;93151.56;;;0.85;100.00
57248;BME280;55809;46.618;10.764;2023-12-07T06:56:09;93041.19;;;0.14;100.00
57248;BME280;55809;46.618;10.764;2023-12-07T06:58:36;93151.69;;;0.89;100.00
57248;BME280;55809;46.618;10.764;2023-12-07T07:01:03;93159.97;;;0.87;100.00
57248;BME280;55809;46.618;10.764;2023-12-07T07:03:32;93161.88;;;0.87;100.00
57248;BME280;55809;46.618;10.764;2023-12-07T07:06:00;93168.41;;;0.89;100.00
57248;BME280;55809;46.618;10.764;2023-12-07T07:08:27;93181.91;;;0.84;100.00
57248;BME280;55809;46.618;10.764;2023-12-07T07:10:55;93180.00;;;0.85;100.00
57248;BME280;55809;46.618;10.764;2023-12-07T07:13:22;93180.69;;;0.94;100.00
57248;BME280;55809;46.618;10.764;2023-12-07T07:15:49;93186.25;;;0.89;100.00
57248;BME280;55809;46.618;10.764;2023-12-07T07:18:16;93181.13;;;0.84;100.00
57248;BME280;55809;46.618;10.764;2023-12-07T07:20:44;93180.00;;;0.85;100.00
57248;BME280;55809;46.618;10.764;2023-12-07T07:23:12;93186.88;;;0.74;100.00
57248;BME280;55809;46.618;10.764;2023-12-07T07:25:39;93184.91;;;0.83;100.00
57248;BME280;55809;46.618;10.764;2023-12-07T07:28:07;93187.06;;;0.68;100.00
57248;BME280;55809;46.618;10.764;2023-12-07T07:30:34;93186.41;;;0.72;100.00
57248;BME280;55809;46.618;10.764;2023-12-07T07:33:02;93192.97;;;0.74;100.00
57248;BME280;55809;46.618;10.764;2023-12-07T07:35:29;93192.41;;;0.81;100.00
57248;BME280;55809;46.618;10.764;2023-12-07T07:38:00;93185.19;;;0.69;100.00
57248;BME280;55809;46.618;10.764;2023-12-07T07:40:27;93191.84;;;0.75;100.00
57248;BME280;55809;46.618;10.764;2023-12-07T07:42:53;93191.31;;;0.69;100.00
57248;BME280;55809;46.618;10.764;2023-12-07T07:45:20;93196.84;;;0.77;100.00
57248;BME280;55809;46.618;10.764;2023-12-07T07:47:47;93197.63;;;0.89;100.00
57248;BME280;55809;46.618;10.764;2023-12-07T07:50:14;93192.53;;;0.84;100.00
57248;BME280;55809;46.618;10.764;2023-12-07T07:52:43;93210.66;;;0.82;100.00
57248;BME280;55809;46.618;10.764;2023-12-07T07:55:12;93221.28;;;0.82;100.00
57248;BME280;55809;46.618;10.764;2023-12-07T07:57:39;93221.53;;;0.77;100.00
57248;BME280;55809;46.618;10.764;2023-12-07T08:00:07;93223.53;;;0.80;100.00
57248;BME280;55809;46.618;10.764;2023-12-07T08:02:34;93225.94;;;0.73;100.00
57248;BME280;55809;46.618;10.764;2023-12-07T08:05:02;93233.69;;;0.66;100.00
57248;BME280;55809;46.618;10.764;2023-12-07T08:07:29;93233.16;;;0.73;100.00
57248;BME280;55809;46.618;10.764;2023-12-07T08:09:56;93229.91;;;0.67;100.00
57248;BME280;55809;46.618;10.764;2023-12-07T08:12:24;93235.44;;;0.62;100.00
57248;BME280;55809;46.618;10.764;2023-12-07T08:14:54;93234.00;;;0.64;100.00
57248;BME280;55809;46.618;10.764;2023-12-07T08:17:22;93240.31;;;0.72;100.00
57248;BME280;55809;46.618;10.764;2023-12-07T08:19:49;93251.16;;;0.67;100.00
57248;BME280;55809;46.618;10.764;2023-12-07T08:22:16;93213.94;;;0.55;100.00
57248;BME280;55809;46.618;10.764;2023-12-07T08:24:43;93160.28;;;0.16;100.00
57248;BME280;55809;46.618;10.764;2023-12-07T08:27:10;93244.31;;;0.66;100.00
57248;BME280;55809;46.618;10.764;2023-12-07T08:29:39;93248.81;;;0.65;100.00
57248;BME280;55809;46.618;10.764;2023-12-07T08:32:05;93244.84;;;0.72;100.00
57248;BME280;55809;46.618;10.764;2023-12-07T08:34:32;93247.97;;;0.74;100.00
57248;BME280;55809;46.618;10.764;2023-12-07T08:36:59;93253.72;;;0.63;100.00
57248;BME280;55809;46.618;10.764;2023-12-07T08:39:28;93251.28;;;0.70;100.00
57248;BME280;55809;46.618;10.764;2023-12-07T08:41:55;93254.13;;;0.65;100.00
57248;BME280;55809;46.618;10.764;2023-12-07T08:44:22;93242.31;;;0.75;100.00
57248;BME280;55809;46.618;10.764;2023-12-07T08:46:50;93255.25;;;0.64;100.00
57248;BME280;55809;46.618;10.764;2023-12-07T08:49:17;93254.34;;;0.60;100.00
57248;BME280;55809;46.618;10.764;2023-12-07T08:51:45;93258.31;;;0.54;100.00
57248;BME280;55809;46.618;10.764;2023-12-07T08:54:12;93267.00;;;0.63;100.00
57248;BME280;55809;46.618;10.764;2023-12-07T08:56:39;93261.56;;;0.72;100.00
57248;BME280;55809;46.618;10.764;2023-12-07T08:59:06;93170.25;;;0.19;100.00
57248;BME280;55809;46.618;10.764;2023-12-07T09:01:33;93248.78;;;0.86;100.00
57248;BME280;55809;46.618;10.764;2023-12-07T09:04:01;93257.84;;;0.85;100.00
57248;BME280;55809;46.618;10.764;2023-12-07T09:06:28;93261.31;;;0.86;100.00
57248;BME280;55809;46.618;10.764;2023-12-07T09:08:57;93262.38;;;0.85;100.00
57248;BME280;55809;46.618;10.764;2023-12-07T09:11:24;93260.38;;;0.82;100.00
57248;BME280;55809;46.618;10.764;2023-12-07T09:13:51;93239.31;;;0.64;100.00
57248;BME280;55809;46.618;10.764;2023-12-07T09:16:18;93267.25;;;0.83;100.00
57248;BME280;55809;46.618;10.764;2023-12-07T09:18:46;93249.53;;;0.75;100.00
57248;BME280;55809;46.618;10.764;2023-12-07T09:21:15;93272.81;;;0.90;100.00
57248;BME280;55809;46.618;10.764;2023-12-07T09:23:42;93262.19;;;0.90;100.00
57248;BME280;55809;46.618;10.764;2023-12-07T09:26:10;93271.38;;;0.92;100.00
57248;BME280;55809;46.618;10.764;2023-12-07T09:28:37;93200.53;;;0.51;100.00
57248;BME280;55809;46.618;10.764;2023-12-07T09:31:05;93257.22;;;1.01;100.00
57248;BME280;55809;46.618;10.764;2023-12-07T09:33:33;93267.84;;;1.01;100.00
57248;BME280;55809;46.618;10.764;2023-12-07T09:36:00;93267.31;;;1.07;100.00
57248;BME280;55809;46.618;10.764;2023-12-07T09:38:30;93261.34;;;1.10;100.00
57248;BME280;55809;46.618;10.764;2023-12-07T09:40:58;93244.25;;;1.11;100.00
57248;BME280;55809;46.618;10.764;2023-12-07T09:43:25;93265.34;;;1.16;100.00
57248;BME280;55809;46.618;10.764;2023-12-07T09:45:54;93260.00;;;1.16;100.00
57248;BME280;55809;46.618;10.764;2023-12-07T09:48:21;93246.84;;;1.20;100.00
57248;BME280;55809;46.618;10.764;2023-12-07T09:50:49;93249.16;;;1.22;100.00
57248;BME280;55809;46.618;10.764;2023-12-07T09:53:35;93243.97;;;1.25;100.00
57248;BME280;55809;46.618;10.764;2023-12-07T09:56:09;93242.63;;;1.31;100.00
57248;BME280;55809;46.618;10.764;2023-12-07T09:58:36;93236.00;;;1.25;100.00
57248;BME280;55809;46.618;10.764;2023-12-07T10:01:04;93238.66;;;1.25;100.00
57248;BME280;55809;46.618;10.764;2023-12-07T10:03:31;93231.00;;;1.24;100.00
57248;BME280;55809;46.618;10.764;2023-12-07T10:05:59;93226.44;;;1.24;100.00
57248;BME280;55809;46.618;10.764;2023-12-07T10:08:27;93224.34;;;1.30;100.00
57248;BME280;55809;46.618;10.764;2023-12-07T10:11:04;93224.34;;;1.30;100.00
57248;BME280;55809;46.618;10.764;2023-12-07T10:13:34;93210.81;;;1.35;100.00
57248;BME280;55809;46.618;10.764;2023-12-07T10:16:08;93209.84;;;1.39;100.00
57248;BME280;55809;46.618;10.764;2023-12-07T10:18:36;93209.84;;;1.39;100.00
57248;BME280;55809;46.618;10.764;2023-12-07T10:21:06;93192.44;;;1.30;100.00
57248;BME280;55809;46.618;10.764;2023-12-07T10:23:35;93201.50;;;1.41;100.00
57248;BME280;55809;46.618;10.764;2023-12-07T10:26:06;93188.78;;;1.34;100.00
57248;BME280;55809;46.618;10.764;2023-12-07T10:28:34;93194.75;;;1.44;100.00
57248;BME280;55809;46.618;10.764;2023-12-07T10:31:03;93198.63;;;1.58;100.00
57248;BME280;55809;46.618;10.764;2023-12-07T10:33:30;93181.88;;;1.58;100.00
57248;BME280;55809;46.618;10.764;2023-12-07T10:35:57;93176.78;;;1.53;100.00
57248;BME280;55809;46.618;10.764;2023-12-07T10:38:24;93170.03;;;1.55;100.00
57248;BME280;55809;46.618;10.764;2023-12-07T10:41:01;93177.47;;;1.50;100.00
57248;BME280;55809;46.618;10.764;2023-12-07T10:43:35;93166.47;;;1.51;100.00
57248;BME280;55809;46.618;10.764;2023-12-07T10:46:05;93154.97;;;1.47;100.00
57248;BME280;55809;46.618;10.764;2023-12-07T10:48:32;93150.97;;;1.53;100.00
57248;BME280;55809;46.618;10.764;2023-12-07T10:51:00;93154.41;;;1.54;100.00
57248;BME280;55809;46.618;10.764;2023-12-07T10:53:37;93151.31;;;1.52;100.00
57248;BME280;55809;46.618;10.764;2023-12-07T10:56:10;93151.84;;;1.57;100.00
57248;BME280;55809;46.618;10.764;2023-12-07T10:58:39;93142.50;;;1.63;100.00
57248;BME280;55809;46.618;10.764;2023-12-07T11:01:08;93127.47;;;1.55;100.00
57248;BME280;55809;46.618;10.764;2023-12-07T11:03:35;93150.41;;;1.60;100.00
57248;BME280;55809;46.618;10.764;2023-12-07T11:06:03;93148.50;;;1.60;100.00
57248;BME280;55809;46.618;10.764;2023-12-07T11:08:35;93140.00;;;1.55;100.00
57248;BME280;55809;46.618;10.764;2023-12-07T11:11:07;93132.03;;;1.55;100.00
57248;BME280;55809;46.618;10.764;2023-12-07T11:13:38;93150.28;;;1.56;100.00
57248;BME280;55809;46.618;10.764;2023-12-07T11:16:07;93149.28;;;1.61;100.00
57248;BME280;55809;46.618;10.764;2023-12-07T11:18:36;93154.69;;;1.64;100.00
57248;BME280;55809;46.618;10.764;2023-12-07T11:21:04;93152.59;;;1.70;100.00
57248;BME280;55809;46.618;10.764;2023-12-07T11:23:31;93148.59;;;1.64;100.00
57248;BME280;55809;46.618;10.764;2023-12-07T11:25:58;93117.25;;;1.57;100.00
57248;BME280;55809;46.618;10.764;2023-12-07T11:28:35;93052.75;;;1.20;100.00
57248;BME280;55809;46.618;10.764;2023-12-07T11:31:06;93084.84;;;1.39;100.00
57248;BME280;55809;46.618;10.764;2023-12-07T11:33:33;93142.81;;;1.74;100.00
57248;BME280;55809;46.618;10.764;2023-12-07T11:36:04;93142.50;;;1.76;100.00
57248;BME280;55809;46.618;10.764;2023-12-07T11:38:36;93143.72;;;1.78;100.00
57248;BME280;55809;46.618;10.764;2023-12-07T11:41:03;93142.94;;;1.78;100.00
57248;BME280;55809;46.618;10.764;2023-12-07T11:43:37;93120.13;;;1.64;100.00
57248;BME280;55809;46.618;10.764;2023-12-07T11:46:08;93054.19;;;1.17;100.00
57248;BME280;55809;46.618;10.764;2023-12-07T11:48:36;93128.75;;;1.74;100.00
57248;BME280;55809;46.618;10.764;2023-12-07T11:51:06;93122.56;;;1.70;100.00
57248;BME280;55809;46.618;10.764;2023-12-07T11:53:38;93119.13;;;1.69;100.00
57248;BME280;55809;46.618;10.764;2023-12-07T11:56:07;93122.13;;;1.96;100.00
57248;BME280;55809;46.618;10.764;2023-12-07T11:58:36;93019.84;;;1.25;100.00
57248;BME280;55809;46.618;10.764;2023-12-07T12:01:03;93113.31;;;1.79;100.00
57248;BME280;55809;46.618;10.764;2023-12-07T12:03:32;93111.81;;;1.66;100.00
57248;BME280;55809;46.618;10.764;2023-12-07T12:05:59;93113.41;;;1.55;100.00
57248;BME280;55809;46.618;10.764;2023-12-07T12:08:26;93115.94;;;1.51;100.00
57248;BME280;55809;46.618;10.764;2023-12-07T12:10:54;93114.19;;;1.55;100.00
57248;BME280;55809;46.618;10.764;2023-12-07T12:13:26;93116.94;;;1.59;100.00
57248;BME280;55809;46.618;10.764;2023-12-07T12:15:55;93115.06;;;1.47;100.00
57248;BME280;55809;46.618;10.764;2023-12-07T12:18:23;93113.97;;;1.48;100.00
57248;BME280;55809;46.618;10.764;2023-12-07T12:20:53;93096.81;;;1.46;100.00
57248;BME280;55809;46.618;10.764;2023-12-07T12:23:21;93110.31;;;1.40;100.00
57248;BME280;55809;46.618;10.764;2023-12-07T12:25:48;93099.94;;;1.35;100.00
57248;BME280;55809;46.618;10.764;2023-12-07T12:28:17;93107.47;;;1.33;100.00
57248;BME280;55809;46.618;10.764;2023-12-07T12:30:47;93108.47;;;1.29;100.00
57248;BME280;55809;46.618;10.764;2023-12-07T12:33:14;93108.69;;;1.24;100.00
57248;BME280;55809;46.618;10.764;2023-12-07T12:35:41;93107.06;;;1.19;100.00
57248;BME280;55809;46.618;10.764;2023-12-07T12:38:11;93109.16;;;1.13;100.00
57248;BME280;55809;46.618;10.764;2023-12-07T12:40:39;93106.19;;;1.03;100.00
57248;BME280;55809;46.618;10.764;2023-12-07T12:43:07;93105.28;;;0.99;100.00
57248;BME280;55809;46.618;10.764;2023-12-07T12:45:34;93093.22;;;1.01;100.00
57248;BME280;55809;46.618;10.764;2023-12-07T12:48:01;93094.53;;;1.07;100.00
57248;BME280;55809;46.618;10.764;2023-12-07T12:50:35;93093.22;;;1.01;100.00
57248;BME280;55809;46.618;10.764;2023-12-07T12:53:04;93088.34;;;0.91;100.00
57248;BME280;55809;46.618;10.764;2023-12-07T12:55:36;93092.53;;;0.92;100.00